Time;durP1;ratioP1;P1;durP2;ratioP2;P2;SDS_P1;SDS_P2;PMS_P1;PMS_P2;Temp;Humidity;BMP_temperature;BMP_pressure;BME280_temperature;BME280_humidity;BME280_pressure;Samples;Min_cycle;Max_cycle;Signal;HPM_P1;HPM_P2
2023/06/20 00:00:23;;;;;;;;;;;;;;;;;;5093359;28;19915;-73
2023/06/20 00:02:49;;;;;;;;;;;;;;;;;;5113209;28;20271;-71
2023/06/20 00:05:14;;;;;;;;;;;;;;;;;;5094697;28;19911;-73
2023/06/20 00:07:39;;;;;;;;;;;;;;;;;;5112867;28;19915;-73
2023/06/20 00:10:04;;;;;;;;;;;;;;;;;;5112686;28;20003;-72
2023/06/20 00:12:30;;;;;;;;;;;;;;;;;;5094760;28;20329;-72
2023/06/20 00:14:55;;;;;;;;;;;;;;;;;;5111838;28;19916;-72
2023/06/20 00:17:21;;;;;;;;;;;;;;;;;;5112838;28;19915;-72
2023/06/20 00:19:46;;;;;;;;;;;;;;;;;;5094532;28;19923;-72
2023/06/20 00:22:11;;;;;;;;;;;;;;;;;;5115684;28;20440;-72
2023/06/20 00:24:37;;;;;;;;;;;;;;;;;;5116431;28;19927;-73
2023/06/20 00:27:02;;;;;;;;;;;;;;;;;;5098533;28;19919;-74
2023/06/20 00:29:27;;;;;;;;;;;;;;;;;;5097822;28;19915;-74
2023/06/20 00:31:52;;;;;;;;;;;;;;;;;;5080815;28;19916;-73
2023/06/20 00:34:21;;;;;;;;;;;;;;;;;;5116141;28;20382;-73
2023/06/20 00:36:47;;;;;;;;;;;;;;;;;;5115864;28;19927;-73
2023/06/20 00:39:12;;;;;;;;;;;;;;;;;;5115718;28;19916;-74
2023/06/20 00:41:39;;;;;;;;;;;;;;;;;;5097686;28;20010;-73
2023/06/20 00:44:04;;;;;;;;;;;;;;;;;;5097018;28;20326;-72
2023/06/20 00:46:29;;;;;;;;;;;;;;;;;;5115829;28;19915;-73
2023/06/20 00:48:56;;;;;;;;;;;;;;;;;;5097421;28;19908;-73
2023/06/20 00:51:21;;;;;;;;;;;;;;;;;;5116151;28;19916;-73
2023/06/20 00:53:46;;;;;;;;;;;;;;;;;;5115666;28;20329;-75
2023/06/20 00:56:12;;;;;;;;;;;;;;;;;;5097303;28;19924;-74
2023/06/20 00:58:37;;;;;;;;;;;;;;;;;;5115267;28;19951;-74
2023/06/20 01:01:02;;;;;;;;;;;;;;;;;;5115602;28;20295;-73
2023/06/20 01:03:27;;;;;;;;;;;;;;;;;;5115395;28;19938;-73
2023/06/20 01:05:53;;;;;;;;;;;;;;;;;;5097399;28;19923;-72
2023/06/20 01:08:18;;;;;;;;;;;;;;;;;;5115602;28;20315;-72
2023/06/20 01:10:43;;;;;;;;;;;;;;;;;;5115700;28;20006;-72
2023/06/20 01:13:09;;;;;;;;;;;;;;;;;;5115107;28;19916;-74
2023/06/20 01:15:35;;;;;;;;;;;;;;;;;;5095855;28;19919;-72
2023/06/20 01:18:01;;;;;;;;;;;;;;;;;;5115512;28;19916;-72
2023/06/20 01:20:26;;;;;;;;;;;;;;;;;;5115428;28;19945;-71
2023/06/20 01:22:56;;;;;;;;;;;;;;;;;;5115322;28;19966;-73
2023/06/20 01:25:23;;;;;;;;;;;;;;;;;;5115523;28;20398;-73
2023/06/20 01:27:48;;;;;;;;;;;;;;;;;;5115261;28;19919;-72
2023/06/20 01:30:14;;;;;;;;;;;;;;;;;;5096870;28;19984;-72
2023/06/20 01:32:40;;;;;;;;;;;;;;;;;;5095679;28;19963;-71
2023/06/20 01:35:05;;;;;;;;;;;;;;;;;;5115370;28;20287;-71
2023/06/20 01:37:30;;;;;;;;;;;;;;;;;;5115156;28;19912;-73
2023/06/20 01:39:55;;;;;;;;;;;;;;;;;;5096595;28;19916;-73
2023/06/20 01:42:21;;;;;;;;;;;;;;;;;;5096807;28;19916;-72
2023/06/20 01:44:49;;;;;;;;;;;;;;;;;;5096794;28;19916;-72
2023/06/20 01:47:17;;;;;;;;;;;;;;;;;;5095366;28;19920;-71
2023/06/20 01:49:43;;;;;;;;;;;;;;;;;;5114901;28;20375;-71
2023/06/20 01:52:08;;;;;;;;;;;;;;;;;;5096511;28;20010;-71
2023/06/20 01:54:34;;;;;;;;;;;;;;;;;;5095482;28;20002;-72
2023/06/20 01:56:59;;;;;;;;;;;;;;;;;;5096816;28;20032;-71
2023/06/20 01:59:25;;;;;;;;;;;;;;;;;;5096506;28;20340;-71
2023/06/20 02:01:50;;;;;;;;;;;;;;;;;;5091552;28;20022;-71
2023/06/20 02:04:16;;;;;;;;;;;;;;;;;;5114675;28;20420;-72
2023/06/20 02:06:41;;;;;;;;;;;;;;;;;;5114728;28;19916;-72
2023/06/20 02:09:07;;;;;;;;;;;;;;;;;;5114750;28;19955;-72
2023/06/20 02:11:32;;;;;;;;;;;;;;;;;;5096311;28;19939;-72
2023/06/20 02:13:58;;;;;;;;;;;;;;;;;;5113156;28;20252;-72
2023/06/20 02:16:23;;;;;;;;;;;;;;;;;;5096323;28;19944;-72
2023/06/20 02:18:48;;;;;;;;;;;;;;;;;;5096075;28;19991;-73
2023/06/20 02:21:14;;;;;;;;;;;;;;;;;;5096203;28;19916;-73
2023/06/20 02:23:39;;;;;;;;;;;;;;;;;;5096131;28;20274;-73
2023/06/20 02:26:07;;;;;;;;;;;;;;;;;;5096225;28;20487;-73
2023/06/20 02:28:33;;;;;;;;;;;;;;;;;;5114357;28;20080;-73
2023/06/20 02:30:58;;;;;;;;;;;;;;;;;;5114159;28;20367;-72
2023/06/20 02:33:24;;;;;;;;;;;;;;;;;;5095659;28;20379;-73
2023/06/20 02:35:50;;;;;;;;;;;;;;;;;;5095863;28;19970;-72
2023/06/20 02:38:15;;;;;;;;;;;;;;;;;;5114494;28;19994;-72
2023/06/20 02:40:40;;;;;;;;;;;;;;;;;;5094419;28;19968;-72
2023/06/20 02:43:08;;;;;;;;;;;;;;;;;;5111514;28;19918;-72
2023/06/20 02:45:33;;;;;;;;;;;;;;;;;;5075338;28;19916;-72
2023/06/20 02:47:58;;;;;;;;;;;;;;;;;;5079863;28;20301;-73
2023/06/20 02:50:24;;;;;;;;;;;;;;;;;;5094959;28;19912;-73
2023/06/20 02:52:49;;;;;;;;;;;;;;;;;;5095709;28;19922;-72
2023/06/20 02:55:14;;;;;;;;;;;;;;;;;;5113738;28;20286;-72
2023/06/20 02:57:39;;;;;;;;;;;;;;;;;;5113778;28;19920;-73
2023/06/20 03:00:09;;;;;;;;;;;;;;;;;;5094190;28;19926;-74
2023/06/20 03:02:34;;;;;;;;;;;;;;;;;;5075224;28;19939;-73
2023/06/20 03:05:00;;;;;;;;;;;;;;;;;;5091298;28;20386;-74
2023/06/20 03:07:26;;;;;;;;;;;;;;;;;;5091421;28;19922;-74
2023/06/20 03:09:51;;;;;;;;;;;;;;;;;;5107942;28;19915;-73
2023/06/20 03:12:17;;;;;;;;;;;;;;;;;;5109283;28;19923;-73
2023/06/20 03:14:42;;;;;;;;;;;;;;;;;;5090634;28;19916;-74
2023/06/20 03:17:07;;;;;;;;;;;;;;;;;;5109095;28;19927;-71
2023/06/20 03:19:33;;;;;;;;;;;;;;;;;;5091077;28;19920;-71
2023/06/20 03:21:59;;;;;;;;;;;;;;;;;;5074108;28;19916;-72
2023/06/20 03:24:24;;;;;;;;;;;;;;;;;;5091240;28;19918;-71
2023/06/20 03:26:49;;;;;;;;;;;;;;;;;;5091648;28;20354;-70
2023/06/20 03:29:15;;;;;;;;;;;;;;;;;;5072012;28;20019;-71
2023/06/20 03:31:40;;;;;;;;;;;;;;;;;;5075594;28;19959;-71
2023/06/20 03:34:06;;;;;;;;;;;;;;;;;;5053162;28;19916;-72
2023/06/20 03:36:31;;;;;;;;;;;;;;;;;;5053336;28;19920;-73
2023/06/20 03:38:56;;;;;;;;;;;;;;;;;;5053130;28;19969;-72
2023/06/20 03:41:23;;;;;;;;;;;;;;;;;;5069590;28;19916;-72
2023/06/20 03:43:48;;;;;;;;;;;;;;;;;;5062155;28;20022;-72
2023/06/20 03:46:14;;;;;;;;;;;;;;;;;;5090549;28;19946;-72
2023/06/20 03:48:39;;;;;;;;;;;;;;;;;;5090794;28;20283;-72
2023/06/20 03:51:07;;;;;;;;;;;;;;;;;;5090480;28;19916;-71
2023/06/20 03:53:32;;;;;;;;;;;;;;;;;;5089353;28;19922;-73
2023/06/20 03:55:58;;;;;;;;;;;;;;;;;;5075140;28;19920;-73
2023/06/20 03:58:23;;;;;;;;;;;;;;;;;;5093346;28;19961;-73
2023/06/20 04:00:49;;;;;;;;;;;;;;;;;;5092624;28;19916;-73
2023/06/20 04:03:14;;;;;;;;;;;;;;;;;;5109747;28;19927;-74
2023/06/20 04:05:39;;;;;;;;;;;;;;;;;;5094279;28;20282;-73
2023/06/20 04:08:04;;;;;;;;;;;;;;;;;;5111016;28;19927;-75
2023/06/20 04:10:30;;;;;;;;;;;;;;;;;;5076912;28;19919;-73
2023/06/20 04:12:55;;;;;;;;;;;;;;;;;;5094293;28;19920;-73
2023/06/20 04:15:20;;;;;;;;;;;;;;;;;;5072721;28;19990;-75
2023/06/20 04:17:46;;;;;;;;;;;;;;;;;;5057156;28;20019;-73
2023/06/20 04:20:12;;;;;;;;;;;;;;;;;;5073626;28;20317;-72
2023/06/20 04:22:42;;;;;;;;;;;;;;;;;;5073459;28;19908;-73
2023/06/20 04:25:07;;;;;;;;;;;;;;;;;;5078675;28;19919;-73
2023/06/20 04:27:32;;;;;;;;;;;;;;;;;;5077220;28;19922;-74
2023/06/20 04:29:58;;;;;;;;;;;;;;;;;;5091563;28;19920;-74
2023/06/20 04:32:23;;;;;;;;;;;;;;;;;;5085433;28;19916;-72
2023/06/20 04:34:52;;;;;;;;;;;;;;;;;;5073428;28;19916;-72
2023/06/20 04:37:18;;;;;;;;;;;;;;;;;;5073370;28;19955;-73
2023/06/20 04:39:43;;;;;;;;;;;;;;;;;;5087922;28;19974;-73
2023/06/20 04:42:08;;;;;;;;;;;;;;;;;;5112226;28;19915;-72
2023/06/20 04:44:34;;;;;;;;;;;;;;;;;;5109611;28;20123;-73
2023/06/20 04:46:59;;;;;;;;;;;;;;;;;;5093107;28;20283;-73
2023/06/20 04:49:25;;;;;;;;;;;;;;;;;;5093225;28;20014;-73
2023/06/20 04:51:51;;;;;;;;;;;;;;;;;;5092520;28;19918;-73
2023/06/20 04:54:17;;;;;;;;;;;;;;;;;;5111597;28;19919;-73
2023/06/20 04:56:42;;;;;;;;;;;;;;;;;;5093689;28;19923;-71
2023/06/20 04:59:08;;;;;;;;;;;;;;;;;;5110523;28;20291;-71
2023/06/20 05:01:33;;;;;;;;;;;;;;;;;;5073593;28;19973;-71
2023/06/20 05:04:03;;;;;;;;;;;;;;;;;;5092742;28;20404;-74
2023/06/20 05:06:28;;;;;;;;;;;;;;;;;;5089848;28;20778;-71
2023/06/20 05:08:54;;;;;;;;;;;;;;;;;;5092780;28;19923;-73
2023/06/20 05:11:20;;;;;;;;;;;;;;;;;;5109995;28;19915;-71
2023/06/20 05:13:45;;;;;;;;;;;;;;;;;;5109861;28;20283;-72
2023/06/20 05:16:11;;;;;;;;;;;;;;;;;;5110175;28;20264;-72
2023/06/20 05:18:36;;;;;;;;;;;;;;;;;;5092683;28;19916;-73
2023/06/20 05:21:02;;;;;;;;;;;;;;;;;;5075382;28;20282;-71
2023/06/20 05:23:27;;;;;;;;;;;;;;;;;;5109272;28;19916;-73
2023/06/20 05:25:52;;;;;;;;;;;;;;;;;;5092369;28;20245;-73
2023/06/20 05:28:17;;;;;;;;;;;;;;;;;;5108536;28;19920;-72
2023/06/20 05:30:43;;;;;;;;;;;;;;;;;;5104858;28;19926;-73
2023/06/20 05:33:08;;;;;;;;;;;;;;;;;;5109587;28;19959;-74
2023/06/20 05:35:33;;;;;;;;;;;;;;;;;;5108203;28;19974;-72
2023/06/20 05:37:59;;;;;;;;;;;;;;;;;;5091423;28;19916;-72
2023/06/20 05:40:25;;;;;;;;;;;;;;;;;;5109849;28;20039;-72
2023/06/20 05:42:50;;;;;;;;;;;;;;;;;;5091876;28;20434;-72
2023/06/20 05:45:15;;;;;;;;;;;;;;;;;;5106429;28;20427;-72
2023/06/20 05:47:41;;;;;;;;;;;;;;;;;;5090713;28;20391;-71
2023/06/20 05:50:06;;;;;;;;;;;;;;;;;;5090541;28;19916;-72
2023/06/20 05:52:31;;;;;;;;;;;;;;;;;;5101559;28;19916;-73
2023/06/20 05:54:57;;;;;;;;;;;;;;;;;;5075415;28;19923;-72
2023/06/20 05:57:22;;;;;;;;;;;;;;;;;;5086773;28;19930;-71
2023/06/20 05:59:48;;;;;;;;;;;;;;;;;;5105839;28;19949;-73
2023/06/20 06:02:15;;;;;;;;;;;;;;;;;;5074333;28;20359;-71
2023/06/20 06:04:43;;;;;;;;;;;;;;;;;;5088160;28;19927;-72
2023/06/20 06:07:10;;;;;;;;;;;;;;;;;;5102846;28;20010;-71
2023/06/20 06:09:37;;;;;;;;;;;;;;;;;;5086920;28;20438;-72
2023/06/20 06:12:02;;;;;;;;;;;;;;;;;;5075534;28;19920;-72
2023/06/20 06:14:28;;;;;;;;;;;;;;;;;;5097908;28;19965;-70
2023/06/20 06:16:53;;;;;;;;;;;;;;;;;;5102954;28;20204;-70
2023/06/20 06:19:20;;;;;;;;;;;;;;;;;;5108552;28;19958;-70
2023/06/20 06:21:45;;;;;;;;;;;;;;;;;;5108735;28;20424;-71
2023/06/20 06:24:10;;;;;;;;;;;;;;;;;;5107039;28;19919;-75
2023/06/20 06:26:35;;;;;;;;;;;;;;;;;;5100052;28;20624;-73
2023/06/20 06:29:01;;;;;;;;;;;;;;;;;;5108808;28;19955;-73
2023/06/20 06:31:29;;;;;;;;;;;;;;;;;;5092060;28;20287;-74
2023/06/20 06:33:56;;;;;;;;;;;;;;;;;;5108413;28;19920;-74
2023/06/20 06:36:21;;;;;;;;;;;;;;;;;;5109396;28;20027;-74
2023/06/20 06:38:49;;;;;;;;;;;;;;;;;;5109793;28;20343;-74
2023/06/20 06:41:14;;;;;;;;;;;;;;;;;;5096643;28;19943;-73
2023/06/20 06:43:39;;;;;;;;;;;;;;;;;;5107956;28;20348;-73
2023/06/20 06:46:04;;;;;;;;;;;;;;;;;;5089496;28;19916;-73
2023/06/20 06:48:30;;;;;;;;;;;;;;;;;;5109760;28;19924;-72
2023/06/20 06:50:55;;;;;;;;;;;;;;;;;;5108540;28;19915;-72
2023/06/20 06:53:20;;;;;;;;;;;;;;;;;;5108479;28;19927;-72
2023/06/20 06:55:46;;;;;;;;;;;;;;;;;;5097232;28;19927;-73
2023/06/20 06:58:11;;;;;;;;;;;;;;;;;;5074746;28;19955;-71
2023/06/20 07:00:36;;;;;;;;;;;;;;;;;;5103495;28;19920;-72
2023/06/20 07:03:02;;;;;;;;;;;;;;;;;;5106630;28;19998;-71
2023/06/20 07:05:27;;;;;;;;;;;;;;;;;;5107892;28;19916;-72
2023/06/20 07:07:52;;;;;;;;;;;;;;;;;;5106337;28;20359;-71
2023/06/20 07:10:18;;;;;;;;;;;;;;;;;;5103426;28;19920;-72
2023/06/20 07:12:43;;;;;;;;;;;;;;;;;;5109466;28;20398;-74
2023/06/20 07:15:08;;;;;;;;;;;;;;;;;;5109359;28;19919;-72
2023/06/20 07:17:34;;;;;;;;;;;;;;;;;;5104775;28;20018;-74
2023/06/20 07:19:59;;;;;;;;;;;;;;;;;;5099663;28;19922;-73
2023/06/20 07:22:24;;;;;;;;;;;;;;;;;;5100957;28;19920;-73
2023/06/20 07:24:49;;;;;;;;;;;;;;;;;;5104327;28;19927;-73
2023/06/20 07:27:15;;;;;;;;;;;;;;;;;;5109006;28;19927;-73
2023/06/20 07:29:40;;;;;;;;;;;;;;;;;;5106874;28;19920;-72
2023/06/20 07:32:05;;;;;;;;;;;;;;;;;;5108659;28;19961;-69
2023/06/20 07:34:30;;;;;;;;;;;;;;;;;;5109222;28;20008;-71
2023/06/20 07:36:56;;;;;;;;;;;;;;;;;;5104010;28;20398;-71
2023/06/20 07:39:21;;;;;;;;;;;;;;;;;;5105013;28;20052;-70
2023/06/20 07:41:47;;;;;;;;;;;;;;;;;;5098714;28;19915;-71
2023/06/20 07:44:12;;;;;;;;;;;;;;;;;;5088575;28;19931;-71
2023/06/20 07:46:39;;;;;;;;;;;;;;;;;;5095533;28;19931;-70
2023/06/20 07:49:04;;;;;;;;;;;;;;;;;;5094277;28;19912;-70
2023/06/20 07:51:33;;;;;;;;;;;;;;;;;;5104322;28;19923;-70
2023/06/20 07:53:58;;;;;;;;;;;;;;;;;;5108614;28;19912;-73
2023/06/20 07:56:24;;;;;;;;;;;;;;;;;;5099456;28;19920;-70
2023/06/20 07:58:49;;;;;;;;;;;;;;;;;;5106417;28;19916;-70
2023/06/20 08:01:14;;;;;;;;;;;;;;;;;;5104095;28;19968;-71
2023/06/20 08:03:40;;;;;;;;;;;;;;;;;;5097880;28;20306;-70
2023/06/20 08:06:05;;;;;;;;;;;;;;;;;;5080635;28;19969;-71
2023/06/20 08:08:30;;;;;;;;;;;;;;;;;;5102550;28;20698;-70
2023/06/20 08:10:55;;;;;;;;;;;;;;;;;;5105721;28;20246;-71
2023/06/20 08:13:21;;;;;;;;;;;;;;;;;;5101680;28;20030;-69
2023/06/20 08:15:46;;;;;;;;;;;;;;;;;;5103924;28;19924;-70
2023/06/20 08:18:11;;;;;;;;;;;;;;;;;;5106860;28;19920;-70
2023/06/20 08:20:36;;;;;;;;;;;;;;;;;;5103216;28;20478;-72
2023/06/20 08:23:02;;;;;;;;;;;;;;;;;;5092883;28;19919;-69
2023/06/20 08:25:27;;;;;;;;;;;;;;;;;;5096554;28;19962;-71
2023/06/20 08:27:52;;;;;;;;;;;;;;;;;;5097144;28;19927;-71
2023/06/20 08:30:18;;;;;;;;;;;;;;;;;;5098241;28;19916;-70
2023/06/20 08:32:44;;;;;;;;;;;;;;;;;;5097693;28;20270;-70
2023/06/20 08:35:09;;;;;;;;;;;;;;;;;;5108480;28;19915;-72
2023/06/20 08:37:35;;;;;;;;;;;;;;;;;;5108111;28;20267;-70
2023/06/20 08:40:00;;;;;;;;;;;;;;;;;;5107645;28;19920;-70
2023/06/20 08:42:25;;;;;;;;;;;;;;;;;;5110021;28;20615;-71
2023/06/20 08:44:50;;;;;;;;;;;;;;;;;;5111850;28;19915;-72
2023/06/20 08:47:16;;;;;;;;;;;;;;;;;;5111875;28;19923;-72
2023/06/20 08:49:41;;;;;;;;;;;;;;;;;;5111581;28;20014;-73
2023/06/20 08:52:06;;;;;;;;;;;;;;;;;;5111456;28;20279;-70
2023/06/20 08:54:32;;;;;;;;;;;;;;;;;;5100137;28;19965;-73
2023/06/20 08:56:57;;;;;;;;;;;;;;;;;;5106991;28;20283;-72
2023/06/20 08:59:22;;;;;;;;;;;;;;;;;;5101961;28;19916;-72
2023/06/20 09:01:48;;;;;;;;;;;;;;;;;;5095997;28;19916;-70
2023/06/20 09:04:13;;;;;;;;;;;;;;;;;;5103406;28;19977;-70
2023/06/20 09:06:38;;;;;;;;;;;;;;;;;;5105879;28;19923;-74
2023/06/20 09:09:04;;;;;;;;;;;;;;;;;;5111419;28;20379;-73
2023/06/20 09:11:29;;;;;;;;;;;;;;;;;;5110301;28;19915;-71
2023/06/20 09:13:55;;;;;;;;;;;;;;;;;;5092853;28;19920;-72
2023/06/20 09:16:20;;;;;;;;;;;;;;;;;;5111320;28;19927;-71
2023/06/20 09:18:45;;;;;;;;;;;;;;;;;;5109278;28;19916;-71
2023/06/20 09:21:11;;;;;;;;;;;;;;;;;;5103910;28;19923;-71
2023/06/20 09:23:36;;;;;;;;;;;;;;;;;;5111225;28;20204;-71
2023/06/20 09:26:01;;;;;;;;;;;;;;;;;;5108244;28;20002;-70
2023/06/20 09:28:27;;;;;;;;;;;;;;;;;;5110855;28;20665;-73
2023/06/20 09:30:52;;;;;;;;;;;;;;;;;;5110912;28;19981;-76
2023/06/20 09:33:17;;;;;;;;;;;;;;;;;;5110935;28;19916;-73
2023/06/20 09:35:43;;;;;;;;;;;;;;;;;;5110809;28;19927;-75
2023/06/20 09:38:08;;;;;;;;;;;;;;;;;;5110335;28;20383;-75
2023/06/20 09:40:33;;;;;;;;;;;;;;;;;;5110821;28;19916;-73
2023/06/20 09:42:58;;;;;;;;;;;;;;;;;;5109144;28;20413;-74
2023/06/20 09:45:24;;;;;;;;;;;;;;;;;;5092612;28;19928;-73
2023/06/20 09:47:49;;;;;;;;;;;;;;;;;;5109448;28;19960;-74
2023/06/20 09:50:19;;;;;;;;;;;;;;;;;;5110304;28;20271;-73
2023/06/20 09:52:44;;;;;;;;;;;;;;;;;;5108443;28;19958;-75
2023/06/20 09:55:10;;;;;;;;;;;;;;;;;;5109456;28;19990;-74
2023/06/20 09:57:36;;;;;;;;;;;;;;;;;;5093922;28;19920;-73
2023/06/20 10:00:02;;;;;;;;;;;;;;;;;;5093415;28;19927;-74
2023/06/20 10:02:31;;;;;;;;;;;;;;;;;;5099895;28;19919;-75
2023/06/20 10:04:56;;;;;;;;;;;;;;;;;;5108869;28;20290;-74
2023/06/20 10:07:22;;;;;;;;;;;;;;;;;;5097599;28;19916;-75
2023/06/20 10:09:48;;;;;;;;;;;;;;;;;;5089824;28;19916;-73
2023/06/20 10:12:13;;;;;;;;;;;;;;;;;;5089514;28;19923;-75
2023/06/20 10:14:38;;;;;;;;;;;;;;;;;;5089597;28;19916;-75
2023/06/20 10:17:03;;;;;;;;;;;;;;;;;;5089701;28;20022;-73
2023/06/20 10:19:29;;;;;;;;;;;;;;;;;;5089644;28;19964;-73
2023/06/20 10:21:57;;;;;;;;;;;;;;;;;;5107174;28;19943;-74
2023/06/20 10:24:22;;;;;;;;;;;;;;;;;;5102987;28;19912;-73
2023/06/20 10:26:48;;;;;;;;;;;;;;;;;;5102627;28;19979;-73
2023/06/20 10:29:13;;;;;;;;;;;;;;;;;;5102425;28;19920;-75
2023/06/20 10:31:38;;;;;;;;;;;;;;;;;;5109725;28;19915;-72
2023/06/20 10:34:04;;;;;;;;;;;;;;;;;;5100873;28;19947;-74
2023/06/20 10:36:29;;;;;;;;;;;;;;;;;;5104817;28;20641;-75
2023/06/20 10:38:56;;;;;;;;;;;;;;;;;;5103729;28;19915;-75
2023/06/20 10:41:21;;;;;;;;;;;;;;;;;;5102812;28;19915;-75
2023/06/20 10:43:47;;;;;;;;;;;;;;;;;;5109526;28;20010;-75
2023/06/20 10:46:12;;;;;;;;;;;;;;;;;;5109494;28;19926;-75
2023/06/20 10:48:37;;;;;;;;;;;;;;;;;;5110168;28;20491;-75
2023/06/20 10:51:03;;;;;;;;;;;;;;;;;;5107956;28;19943;-74
2023/06/20 10:53:29;;;;;;;;;;;;;;;;;;5106894;28;20006;-75
2023/06/20 10:55:54;;;;;;;;;;;;;;;;;;5096856;28;19973;-73
2023/06/20 10:58:19;;;;;;;;;;;;;;;;;;5109226;28;19926;-74
2023/06/20 11:00:44;;;;;;;;;;;;;;;;;;5091330;28;19916;-73
2023/06/20 11:03:10;;;;;;;;;;;;;;;;;;5089333;28;20011;-75
2023/06/20 11:05:35;;;;;;;;;;;;;;;;;;5088122;28;19986;-75
2023/06/20 11:08:01;;;;;;;;;;;;;;;;;;5088734;28;19965;-72
2023/06/20 11:10:26;;;;;;;;;;;;;;;;;;5089180;28;20367;-72
2023/06/20 11:12:51;;;;;;;;;;;;;;;;;;5092581;28;19920;-74
2023/06/20 11:15:17;;;;;;;;;;;;;;;;;;5109366;28;19916;-75
2023/06/20 11:17:42;;;;;;;;;;;;;;;;;;5108855;28;20287;-75
2023/06/20 11:20:07;;;;;;;;;;;;;;;;;;5109072;28;19912;-74
2023/06/20 11:22:32;;;;;;;;;;;;;;;;;;5109717;28;20167;-75
2023/06/20 11:24:58;;;;;;;;;;;;;;;;;;5103969;28;19990;-75
2023/06/20 11:27:24;;;;;;;;;;;;;;;;;;5088365;28;20368;-75
2023/06/20 11:29:49;;;;;;;;;;;;;;;;;;5088931;28;19916;-76
2023/06/20 11:32:14;;;;;;;;;;;;;;;;;;5088522;28;19918;-74
2023/06/20 11:34:40;;;;;;;;;;;;;;;;;;5099486;28;19920;-75
2023/06/20 11:37:05;;;;;;;;;;;;;;;;;;5109016;28;19920;-75
2023/06/20 11:39:31;;;;;;;;;;;;;;;;;;5108800;28;19920;-73
2023/06/20 11:41:56;;;;;;;;;;;;;;;;;;5108778;28;19926;-73
2023/06/20 11:44:22;;;;;;;;;;;;;;;;;;5082472;28;20397;-75
2023/06/20 11:46:47;;;;;;;;;;;;;;;;;;5088395;28;20375;-75
2023/06/20 11:49:12;;;;;;;;;;;;;;;;;;5088321;28;19916;-74
2023/06/20 11:51:38;;;;;;;;;;;;;;;;;;5088635;28;20031;-74
2023/06/20 11:54:04;;;;;;;;;;;;;;;;;;5088114;28;19918;-74
2023/06/20 11:56:30;;;;;;;;;;;;;;;;;;5088558;28;19924;-73
2023/06/20 11:58:55;;;;;;;;;;;;;;;;;;5088139;28;19917;-73
2023/06/20 12:01:20;;;;;;;;;;;;;;;;;;5097998;28;19919;-73
2023/06/20 12:03:46;;;;;;;;;;;;;;;;;;5103669;28;19912;-74
2023/06/20 12:06:11;;;;;;;;;;;;;;;;;;5108105;28;20393;-72
2023/06/20 12:08:37;;;;;;;;;;;;;;;;;;5108715;28;19916;-73
2023/06/20 12:11:02;;;;;;;;;;;;;;;;;;5108729;28;19912;-73
2023/06/20 12:13:27;;;;;;;;;;;;;;;;;;5096526;28;20684;-73
2023/06/20 12:15:53;;;;;;;;;;;;;;;;;;5071020;28;19924;-76
2023/06/20 12:18:18;;;;;;;;;;;;;;;;;;5103290;28;19972;-75
2023/06/20 12:20:44;;;;;;;;;;;;;;;;;;5105086;28;19911;-74
2023/06/20 12:23:09;;;;;;;;;;;;;;;;;;5112093;28;19920;-72
2023/06/20 12:25:35;;;;;;;;;;;;;;;;;;5112253;28;19965;-73
2023/06/20 12:28:01;;;;;;;;;;;;;;;;;;5103065;28;19916;-73
2023/06/20 12:30:26;;;;;;;;;;;;;;;;;;5090877;28;20004;-75
2023/06/20 12:32:52;;;;;;;;;;;;;;;;;;5105493;28;20495;-71
2023/06/20 12:35:17;;;;;;;;;;;;;;;;;;5100115;28;19916;-67
2023/06/20 12:37:42;;;;;;;;;;;;;;;;;;5104941;28;19920;-69
2023/06/20 12:40:09;;;;;;;;;;;;;;;;;;5092427;28;19916;-68
2023/06/20 12:42:36;;;;;;;;;;;;;;;;;;5089282;28;19924;-67
2023/06/20 12:45:01;;;;;;;;;;;;;;;;;;5097372;28;20379;-67
2023/06/20 12:47:26;;;;;;;;;;;;;;;;;;5090318;28;19916;-67
2023/06/20 12:49:52;;;;;;;;;;;;;;;;;;5090008;28;20022;-67
2023/06/20 12:52:17;;;;;;;;;;;;;;;;;;5103777;28;19916;-67
2023/06/20 12:54:42;;;;;;;;;;;;;;;;;;5089998;28;19920;-67
2023/06/20 12:57:07;;;;;;;;;;;;;;;;;;5087850;28;20257;-69
2023/06/20 12:59:33;;;;;;;;;;;;;;;;;;5089535;28;20272;-70
2023/06/20 13:01:58;;;;;;;;;;;;;;;;;;5108413;28;19912;-68
2023/06/20 13:04:23;;;;;;;;;;;;;;;;;;5089969;28;19939;-67
2023/06/20 13:06:49;;;;;;;;;;;;;;;;;;5101573;28;19991;-67
2023/06/20 13:09:15;;;;;;;;;;;;;;;;;;5086748;28;20352;-68
2023/06/20 13:11:40;;;;;;;;;;;;;;;;;;5087127;28;19922;-68
2023/06/20 13:14:05;;;;;;;;;;;;;;;;;;5086639;28;19964;-68
2023/06/20 13:16:31;;;;;;;;;;;;;;;;;;5087231;28;19976;-67
2023/06/20 13:18:59;;;;;;;;;;;;;;;;;;5068845;28;20060;-69
2023/06/20 13:21:25;;;;;;;;;;;;;;;;;;5080473;28;19916;-67
2023/06/20 13:23:50;;;;;;;;;;;;;;;;;;5108351;28;19976;-69
2023/06/20 13:26:15;;;;;;;;;;;;;;;;;;5107855;28;20049;-68
2023/06/20 13:28:41;;;;;;;;;;;;;;;;;;5107626;28;20274;-67
2023/06/20 13:31:06;;;;;;;;;;;;;;;;;;5106520;28;20458;-68
2023/06/20 13:33:31;;;;;;;;;;;;;;;;;;5099598;28;19916;-67
2023/06/20 13:35:57;;;;;;;;;;;;;;;;;;5104273;28;19926;-67
2023/06/20 13:38:22;;;;;;;;;;;;;;;;;;5103406;28;19920;-67
2023/06/20 13:40:47;;;;;;;;;;;;;;;;;;5106198;28;20403;-69
2023/06/20 13:43:13;;;;;;;;;;;;;;;;;;5106283;28;20262;-66
2023/06/20 13:45:38;;;;;;;;;;;;;;;;;;5106562;28;20326;-66
2023/06/20 13:48:03;;;;;;;;;;;;;;;;;;5106527;28;20405;-68
2023/06/20 13:50:29;;;;;;;;;;;;;;;;;;5106533;28;19919;-66
2023/06/20 13:52:54;;;;;;;;;;;;;;;;;;5106511;28;20000;-68
2023/06/20 13:55:19;;;;;;;;;;;;;;;;;;5106325;28;19926;-75
2023/06/20 13:57:45;;;;;;;;;;;;;;;;;;5102775;28;19920;-75
2023/06/20 14:00:11;;;;;;;;;;;;;;;;;;5106696;28;19915;-73
2023/06/20 14:02:39;;;;;;;;;;;;;;;;;;5108773;28;19980;-73
2023/06/20 14:05:04;;;;;;;;;;;;;;;;;;5097497;28;20028;-77
2023/06/20 14:07:32;;;;;;;;;;;;;;;;;;5100557;28;19924;-77
2023/06/20 14:09:57;;;;;;;;;;;;;;;;;;5101319;28;20260;-79
2023/06/20 14:12:23;;;;;;;;;;;;;;;;;;5099162;28;19926;-79
2023/06/20 14:14:48;;;;;;;;;;;;;;;;;;5103773;28;19995;-79
2023/06/20 14:17:13;;;;;;;;;;;;;;;;;;5101254;28;19923;-79
2023/06/20 14:19:39;;;;;;;;;;;;;;;;;;5101005;28;19912;-79
2023/06/20 14:22:04;;;;;;;;;;;;;;;;;;5101337;28;19964;-79
2023/06/20 14:24:29;;;;;;;;;;;;;;;;;;5102325;28;19941;-78
2023/06/20 14:26:55;;;;;;;;;;;;;;;;;;5094753;28;20011;-79
2023/06/20 14:29:20;;;;;;;;;;;;;;;;;;5083989;28;19916;-79
2023/06/20 14:31:45;;;;;;;;;;;;;;;;;;5099153;28;20265;-79
2023/06/20 14:34:10;;;;;;;;;;;;;;;;;;5102004;28;19928;-77
2023/06/20 14:36:37;;;;;;;;;;;;;;;;;;5101735;28;19923;-74
2023/06/20 14:39:02;;;;;;;;;;;;;;;;;;5103221;28;19923;-84
2023/06/20 14:41:28;;;;;;;;;;;;;;;;;;5099810;28;19916;-78
2023/06/20 14:43:53;;;;;;;;;;;;;;;;;;5101353;28;20014;-78
2023/06/20 14:46:18;;;;;;;;;;;;;;;;;;5103222;28;19923;-77
2023/06/20 14:48:44;;;;;;;;;;;;;;;;;;5107754;28;20010;-78
2023/06/20 14:51:09;;;;;;;;;;;;;;;;;;5106576;28;19915;-77
2023/06/20 14:53:35;;;;;;;;;;;;;;;;;;5109062;28;20010;-75
2023/06/20 14:56:00;;;;;;;;;;;;;;;;;;5091187;28;19976;-79
2023/06/20 14:58:25;;;;;;;;;;;;;;;;;;5110032;28;19923;-76
2023/06/20 15:00:51;;;;;;;;;;;;;;;;;;5107410;28;19927;-78
2023/06/20 15:03:16;;;;;;;;;;;;;;;;;;5108140;28;20366;-73
2023/06/20 15:05:41;;;;;;;;;;;;;;;;;;5109909;28;20317;-74
2023/06/20 15:08:07;;;;;;;;;;;;;;;;;;5110216;28;19994;-82
2023/06/20 15:10:32;;;;;;;;;;;;;;;;;;5110105;28;19916;-76
2023/06/20 15:12:57;;;;;;;;;;;;;;;;;;5110037;28;20014;-76
2023/06/20 15:15:23;;;;;;;;;;;;;;;;;;5109254;28;19919;-75
2023/06/20 15:17:48;;;;;;;;;;;;;;;;;;5090404;28;19972;-74
2023/06/20 15:20:13;;;;;;;;;;;;;;;;;;5107203;28;19925;-73
2023/06/20 15:22:39;;;;;;;;;;;;;;;;;;5102446;28;19916;-75
2023/06/20 15:25:04;;;;;;;;;;;;;;;;;;5109699;28;19923;-74
2023/06/20 15:27:29;;;;;;;;;;;;;;;;;;5109665;28;20286;-74
2023/06/20 15:29:55;;;;;;;;;;;;;;;;;;5108169;28;20012;-76
2023/06/20 15:32:20;;;;;;;;;;;;;;;;;;5100088;28;20019;-75
2023/06/20 15:34:45;;;;;;;;;;;;;;;;;;5089346;28;19916;-75
2023/06/20 15:37:10;;;;;;;;;;;;;;;;;;5088973;28;20572;-75
2023/06/20 15:39:36;;;;;;;;;;;;;;;;;;5089098;28;20010;-76
2023/06/20 15:42:02;;;;;;;;;;;;;;;;;;5088709;28;20012;-82
2023/06/20 15:44:27;;;;;;;;;;;;;;;;;;5105490;28;20379;-75
2023/06/20 15:46:54;;;;;;;;;;;;;;;;;;5090901;28;19916;-74
2023/06/20 15:49:19;;;;;;;;;;;;;;;;;;5099645;28;19920;-74
2023/06/20 15:51:44;;;;;;;;;;;;;;;;;;5091907;28;19923;-78
2023/06/20 15:54:09;;;;;;;;;;;;;;;;;;5091673;28;19926;-73
2023/06/20 15:56:35;;;;;;;;;;;;;;;;;;5095565;28;19965;-78
2023/06/20 15:59:00;;;;;;;;;;;;;;;;;;5111309;28;20331;-76
2023/06/20 16:01:25;;;;;;;;;;;;;;;;;;5110595;28;19955;-74
2023/06/20 16:03:50;;;;;;;;;;;;;;;;;;5110022;28;20210;-76
2023/06/20 16:06:16;;;;;;;;;;;;;;;;;;5109762;28;19920;-74
2023/06/20 16:08:42;;;;;;;;;;;;;;;;;;5092428;28;19964;-75
2023/06/20 16:11:07;;;;;;;;;;;;;;;;;;5110815;28;19926;-81
2023/06/20 16:13:32;;;;;;;;;;;;;;;;;;5112785;28;19912;-73
2023/06/20 16:15:57;;;;;;;;;;;;;;;;;;5112194;28;20034;-74
2023/06/20 16:18:23;;;;;;;;;;;;;;;;;;5107566;28;19934;-73
2023/06/20 16:20:49;;;;;;;;;;;;;;;;;;5113921;28;20015;-74
2023/06/20 16:23:14;;;;;;;;;;;;;;;;;;5091991;28;19939;-74
2023/06/20 16:25:40;;;;;;;;;;;;;;;;;;5110811;28;19915;-75
2023/06/20 16:28:05;;;;;;;;;;;;;;;;;;5109403;28;20365;-74
2023/06/20 16:30:30;;;;;;;;;;;;;;;;;;5107533;28;19924;-74
2023/06/20 16:32:57;;;;;;;;;;;;;;;;;;5107265;28;19923;-73